Time;durP1;ratioP1;P1;durP2;ratioP2;P2;SDS_P1;SDS_P2;PMS_P1;PMS_P2;Temp;Humidity;BMP_temperature;BMP_pressure;BME280_temperature;BME280_humidity;BME280_pressure;Samples;Min_cycle;Max_cycle;Signal;HPM_P1;HPM_P2
2021/04/10 00:02:17;;;;;;;26.70;14.65;;;;;;;5.33;57.62;100543.78;1721113;81;25739;-74
2021/04/10 00:04:45;;;;;;;28.10;14.35;;;;;;;5.28;57.59;100537.61;1745610;81;25879;-74
2021/04/10 00:07:14;;;;;;;28.27;14.55;;;;;;;5.23;57.64;100544.38;1725005;81;27104;-74
2021/04/10 00:09:41;;;;;;;28.12;16.27;;;;;;;5.20;57.75;100543.34;1718809;81;25853;-74
2021/04/10 00:12:10;;;;;;;27.67;14.90;;;;;;;5.18;57.81;100545.32;1750100;81;25799;-75
2021/04/10 00:14:37;;;;;;;28.00;13.35;;;;;;;5.14;57.89;100542.64;1701237;81;25905;-75
2021/04/10 00:17:05;;;;;;;28.15;14.53;;;;;;;5.05;57.95;100540.89;1723350;81;25941;-74
2021/04/10 00:19:34;;;;;;;25.57;14.55;;;;;;;4.99;58.13;100544.16;1687670;81;27329;-75
2021/04/10 00:22:02;;;;;;;29.00;16.45;;;;;;;4.94;58.10;100541.15;1724384;81;26075;-75
2021/04/10 00:24:30;;;;;;;36.03;19.05;;;;;;;4.90;58.21;100541.12;1724417;81;25848;-74
2021/04/10 00:27:00;;;;;;;37.00;19.30;;;;;;;4.89;58.16;100540.76;1725984;82;25854;-74
2021/04/10 00:29:27;;;;;;;30.50;17.75;;;;;;;4.84;58.06;100540.37;1703260;81;25850;-74
2021/04/10 00:31:55;;;;;;;28.77;15.30;;;;;;;4.77;58.10;100538.00;1700649;82;27540;-74
2021/04/10 00:34:22;;;;;;;34.95;17.92;;;;;;;4.65;58.22;100536.05;1725710;82;26668;-74
2021/04/10 00:36:50;;;;;;;29.82;16.17;;;;;;;4.54;58.32;100536.25;1683900;82;25690;-74
2021/04/10 00:39:17;;;;;;;28.42;16.15;;;;;;;4.48;58.46;100539.03;1745787;81;26417;-75
2021/04/10 00:41:45;;;;;;;30.40;17.55;;;;;;;4.41;58.55;100535.77;1719971;81;25878;-75
2021/04/10 00:44:13;;;;;;;30.15;16.70;;;;;;;4.36;58.70;100530.91;1703018;82;28243;-75
2021/04/10 00:46:41;;;;;;;29.42;16.77;;;;;;;4.32;58.66;100528.22;1747278;81;25839;-75
2021/04/10 00:49:08;;;;;;;28.60;16.45;;;;;;;4.27;58.77;100532.31;1696940;81;25789;-75
2021/04/10 00:51:36;;;;;;;29.57;16.57;;;;;;;4.20;58.89;100525.92;1744687;81;25819;-75
2021/04/10 00:54:05;;;;;;;34.60;16.05;;;;;;;4.15;59.08;100532.18;1674412;82;25948;-75
2021/04/10 00:56:33;;;;;;;27.95;16.42;;;;;;;4.10;59.13;100535.27;1678378;83;27524;-75
2021/04/10 00:59:01;;;;;;;32.88;16.75;;;;;;;4.08;59.25;100529.77;1681058;82;26549;-75
2021/04/10 01:01:29;;;;;;;34.18;16.77;;;;;;;4.04;59.31;100528.39;1744248;81;25876;-75
2021/04/10 01:03:59;;;;;;;31.10;15.90;;;;;;;4.00;59.31;100525.69;1704375;82;25771;-74
2021/04/10 01:06:30;;;;;;;32.10;16.23;;;;;;;3.97;59.53;100521.52;1726115;82;25711;-74
2021/04/10 01:08:57;;;;;;;31.82;16.30;;;;;;;3.98;59.70;100527.14;1676585;82;27562;-74
2021/04/10 01:11:53;;;;;;;28.47;16.23;;;;;;;3.97;59.73;100524.65;1744101;80;25882;-74
2021/04/10 01:14:35;;;;;;;29.50;16.45;;;;;;;3.96;59.84;100525.13;1671215;83;25814;-74
2021/04/10 01:17:10;;;;;;;28.83;16.80;;;;;;;3.91;59.97;100524.24;1689744;83;25797;-74
2021/04/10 01:20:04;;;;;;;29.32;15.50;;;;;;;3.90;59.94;100527.05;1662698;83;25873;-74
2021/04/10 01:22:56;;;;;;;27.22;14.95;;;;;;;3.88;60.00;100524.55;1690584;83;27651;-74
2021/04/10 01:25:50;;;;;;;32.65;16.75;;;;;;;3.85;60.08;100528.80;1694283;82;26402;-75
2021/04/10 01:29:00;;;;;;;32.60;16.35;;;;;;;3.83;60.24;100527.27;1728653;82;26009;-74
2021/04/10 01:31:41;;;;;;;31.82;16.75;;;;;;;3.78;60.34;100523.77;1724495;82;26474;-74
2021/04/10 01:34:28;;;;;;;27.50;15.58;;;;;;;3.74;60.41;100518.38;1731911;82;25718;-74
2021/04/10 01:37:10;;;;;;;31.07;16.37;;;;;;;3.74;60.47;100518.89;1702539;82;28292;-75
2021/04/10 01:39:41;;;;;;;28.05;15.68;;;;;;;3.71;60.61;100507.25;1704547;82;25956;-75
2021/04/10 01:42:15;;;;;;;32.42;17.00;;;;;;;3.73;60.63;100513.23;1708543;82;25715;-74
2021/04/10 01:44:44;;;;;;;28.45;15.38;;;;;;;3.79;60.72;100512.17;1729992;82;25617;-74
2021/04/10 01:47:16;;;;;;;36.08;17.27;;;;;;;3.87;60.62;100512.78;1703294;82;25781;-74
2021/04/10 01:49:48;;;;;;;29.30;15.63;;;;;;;3.93;60.57;100506.38;1710544;82;27544;-75
2021/04/10 01:52:18;;;;;;;31.42;15.90;;;;;;;3.97;60.43;100509.59;1705899;82;26464;-75
2021/04/10 01:54:46;;;;;;;29.70;15.73;;;;;;;3.97;60.46;100502.97;1732312;82;26375;-75
2021/04/10 01:57:18;;;;;;;35.38;18.35;;;;;;;4.02;60.50;100501.20;1701949;82;25930;-74
2021/04/10 01:59:48;;;;;;;29.60;17.27;;;;;;;4.00;60.45;100507.95;1689102;82;25831;-75
2021/04/10 02:02:20;;;;;;;30.33;15.90;;;;;;;4.02;60.48;100508.64;1679933;82;28453;-74
2021/04/10 02:04:49;;;;;;;34.20;17.20;;;;;;;4.03;60.48;100510.32;1727593;82;26159;-74
2021/04/10 02:07:25;;;;;;;28.27;15.23;;;;;;;4.05;60.51;100513.66;1701518;82;26690;-75
2021/04/10 02:09:55;;;;;;;31.68;15.78;;;;;;;4.09;60.42;100516.84;1719577;82;25858;-74
2021/04/10 02:12:36;;;;;;;32.63;16.40;;;;;;;4.16;60.36;100511.30;1805197;78;25820;-74
2021/04/10 02:15:07;;;;;;;28.55;15.72;;;;;;;4.08;60.32;100512.05;1756852;80;25854;-74
2021/04/10 02:17:35;;;;;;;37.03;16.95;;;;;;;4.07;60.48;100506.88;1698609;80;27533;-75
2021/04/10 02:20:10;;;;;;;33.10;17.90;;;;;;;4.08;60.49;100512.05;1733455;81;25850;-75
2021/04/10 02:22:37;;;;;;;29.27;14.85;;;;;;;4.10;60.49;100513.22;1731657;80;25560;-75
2021/04/10 02:25:08;;;;;;;34.70;15.25;;;;;;;4.09;60.51;100508.89;1756832;81;25749;-75
2021/04/10 02:27:36;;;;;;;29.18;16.27;;;;;;;4.09;60.58;100509.73;1707362;81;25932;-75
2021/04/10 02:30:07;;;;;;;30.57;15.90;;;;;;;4.07;60.58;100509.05;1777075;80;27532;-75
2021/04/10 02:32:48;;;;;;;29.12;15.95;;;;;;;4.08;60.66;100510.73;1711433;80;26513;-74
2021/04/10 02:35:46;;;;;;;30.85;16.23;;;;;;;4.07;60.65;100510.85;1768859;79;25792;-74
2021/04/10 02:38:19;;;;;;;30.97;15.13;;;;;;;4.04;60.65;100510.69;1738099;80;25786;-75
2021/04/10 02:41:02;;;;;;;30.27;16.23;;;;;;;4.05;60.76;100513.66;1718095;80;26218;-74
2021/04/10 02:43:35;;;;;;;29.27;16.25;;;;;;;4.03;60.80;100511.65;1741277;80;27341;-75
2021/04/10 02:46:04;;;;;;;28.95;16.15;;;;;;;4.00;60.92;100505.81;1763538;80;25760;-75
2021/04/10 02:48:43;;;;;;;30.48;15.58;;;;;;;4.03;61.06;100512.97;1705662;80;26160;-75
2021/04/10 02:51:14;;;;;;;29.95;16.73;;;;;;;4.08;60.99;100511.21;1747571;80;26243;-75
2021/04/10 02:53:45;;;;;;;31.65;16.23;;;;;;;4.13;61.06;100502.34;1734741;80;27394;-75
2021/04/10 02:56:16;;;;;;;37.78;16.37;;;;;;;4.17;60.98;100500.54;1741722;80;27525;-75
2021/04/10 02:58:49;;;;;;;34.05;16.27;;;;;;;4.21;60.95;100499.77;1741510;81;25906;-75
2021/04/10 03:01:18;;;;;;;;;;;;;;;4.24;60.82;100503.44;1772897;80;25766;-75
2021/04/10 03:03:50;;;;;;;28.65;16.48;;;;;;;4.21;60.84;100503.75;1766352;79;26185;-75
2021/04/10 03:06:18;;;;;;;29.80;17.30;;;;;;;4.19;60.84;100509.69;1744947;80;26366;-75
2021/04/10 03:08:48;;;;;;;29.40;16.52;;;;;;;4.21;60.77;100514.35;1687359;83;28481;-75
2021/04/10 03:11:18;;;;;;;28.27;15.53;;;;;;;4.20;60.65;100510.86;1684277;82;26086;-75
2021/04/10 03:13:46;;;;;;;29.02;16.30;;;;;;;4.20;60.67;100506.88;1702221;81;26459;-75
2021/04/10 03:16:15;;;;;;;27.90;16.57;;;;;;;4.20;60.65;100509.53;1702319;82;26259;-75
2021/04/10 03:18:47;;;;;;;34.13;17.62;;;;;;;4.23;60.63;100509.25;1659709;84;26480;-75
2021/04/10 03:21:16;;;;;;;32.55;18.60;;;;;;;4.22;60.62;100507.56;1720141;82;27543;-75
2021/04/10 03:23:45;;;;;;;33.38;15.45;;;;;;;4.22;60.56;100512.03;1693328;82;25875;-75
2021/04/10 03:26:17;;;;;;;34.78;17.05;;;;;;;4.19;60.64;100517.64;1717466;81;26463;-75
2021/04/10 03:28:49;;;;;;;30.72;16.30;;;;;;;4.18;60.74;100513.31;1705436;83;25825;-74
2021/04/10 03:31:17;;;;;;;34.83;15.70;;;;;;;4.19;60.75;100514.99;1701061;83;25852;-74
2021/04/10 03:33:46;;;;;;;30.17;15.72;;;;;;;4.16;60.86;100511.30;1683915;83;28620;-74
2021/04/10 03:36:17;;;;;;;35.30;16.15;;;;;;;4.15;60.88;100515.76;1724924;82;26197;-75
2021/04/10 03:38:45;;;;;;;30.90;16.02;;;;;;;4.14;60.94;100510.61;1691377;82;26030;-75
2021/04/10 03:41:15;;;;;;;30.08;16.40;;;;;;;4.16;60.95;100508.65;1692464;82;25896;-74
2021/04/10 03:43:44;;;;;;;33.15;16.60;;;;;;;4.15;60.89;100511.78;1689216;82;26632;-74
2021/04/10 03:46:11;;;;;;;31.80;16.52;;;;;;;4.14;61.01;100503.98;1709647;82;27701;-75
2021/04/10 03:48:39;;;;;;;30.00;16.20;;;;;;;4.11;61.09;100513.06;1656060;83;25930;-74
2021/04/10 03:51:10;;;;;;;34.45;17.07;;;;;;;4.10;61.11;100511.89;1683842;83;25822;-74
2021/04/10 03:53:52;;;;;;;28.12;15.63;;;;;;;4.10;61.20;100514.55;1838198;77;26053;-74
2021/04/10 03:56:20;;;;;;;26.65;16.17;;;;;;;4.01;61.27;100516.75;1801973;78;25848;-75
2021/04/10 03:58:48;;;;;;;29.57;16.60;;;;;;;3.99;61.39;100518.23;1754349;78;28527;-75
2021/04/10 04:01:18;;;;;;;32.60;16.35;;;;;;;3.98;61.45;100516.54;1762156;79;26174;-74
2021/04/10 04:03:45;;;;;;;33.55;16.25;;;;;;;3.95;61.49;100520.83;1777932;78;25961;-74
2021/04/10 04:06:14;;;;;;;29.10;15.25;;;;;;;3.90;61.55;100514.64;1799979;78;25758;-75
2021/04/10 04:08:41;;;;;;;34.67;17.25;;;;;;;3.84;61.56;100514.38;1765400;78;25850;-75
2021/04/10 04:11:11;;;;;;;29.32;16.40;;;;;;;3.81;61.76;100523.45;1750487;78;27536;-74
2021/04/10 04:13:39;;;;;;;33.25;16.93;;;;;;;3.82;61.86;100529.59;1744663;78;25961;-75
2021/04/10 04:16:06;;;;;;;30.55;16.60;;;;;;;3.80;61.80;100528.91;1802669;78;25265;-75
2021/04/10 04:18:34;;;;;;;37.55;16.17;;;;;;;3.75;61.93;100516.58;1751312;78;26161;-74
2021/04/10 04:21:03;;;;;;;33.33;17.30;;;;;;;3.78;62.29;100522.92;1778087;78;25817;-74
2021/04/10 04:23:31;;;;;;;33.85;17.73;;;;;;;3.81;62.41;100531.89;1775816;78;27322;-74
2021/04/10 04:26:02;;;;;;;31.77;16.42;;;;;;;3.85;62.48;100528.80;1752690;78;25932;-75
2021/04/10 04:28:29;;;;;;;35.20;17.67;;;;;;;3.88;62.49;100529.01;1741217;78;25782;-74
2021/04/10 04:30:57;;;;;;;36.48;19.07;;;;;;;3.89;62.54;100527.53;1779070;78;25873;-74
2021/04/10 04:33:25;;;;;;;28.77;16.82;;;;;;;3.90;62.69;100530.54;1776945;79;25786;-74
2021/04/10 04:35:53;;;;;;;30.35;16.70;;;;;;;3.90;62.84;100536.32;1803095;78;26836;-75
2021/04/10 04:38:21;;;;;;;31.68;17.87;;;;;;;3.93;62.90;100541.83;1742197;78;26696;-74
2021/04/10 04:40:50;;;;;;;31.73;17.20;;;;;;;3.99;63.01;100550.03;1680873;80;25888;-74
2021/04/10 04:43:18;;;;;;;32.70;17.87;;;;;;;4.04;63.02;100553.09;1732163;80;25613;-74
2021/04/10 04:45:45;;;;;;;32.15;17.57;;;;;;;4.12;63.13;100553.19;1751645;81;25920;-74
2021/04/10 04:48:13;;;;;;;39.35;18.27;;;;;;;4.16;63.21;100543.95;1691594;81;27591;-74
2021/04/10 04:50:40;;;;;;;34.45;17.45;;;;;;;4.21;63.24;100539.05;1738411;81;25850;-74
2021/04/10 04:53:10;;;;;;;34.35;18.82;;;;;;;4.27;63.29;100539.78;1749629;80;26438;-74
2021/04/10 04:55:37;;;;;;;33.35;18.57;;;;;;;4.31;63.40;100540.31;1762270;80;25934;-74
2021/04/10 04:58:07;;;;;;;31.95;16.82;;;;;;;4.36;63.38;100541.52;1704570;82;25726;-74
2021/04/10 05:00:35;;;;;;;33.70;19.17;;;;;;;4.42;63.41;100543.61;1676882;81;27539;-74
2021/04/10 05:03:03;;;;;;;34.03;18.52;;;;;;;4.48;63.61;100544.81;1713419;81;25900;-74
2021/04/10 05:05:31;;;;;;;33.63;18.30;;;;;;;4.53;63.67;100550.00;1748258;81;25924;-74
2021/04/10 05:07:58;;;;;;;40.95;18.57;;;;;;;4.57;63.61;100557.19;1692734;81;25976;-74
2021/04/10 05:10:26;;;;;;;30.37;16.05;;;;;;;4.59;63.66;100554.73;1733488;81;25869;-74
2021/04/10 05:12:54;;;;;;;34.78;18.45;;;;;;;4.63;63.61;100556.10;1736113;81;28294;-74
2021/04/10 05:15:21;;;;;;;35.78;17.90;;;;;;;4.67;63.92;100563.26;1753765;81;26108;-74
2021/04/10 05:17:49;;;;;;;30.68;16.80;;;;;;;4.74;63.86;100569.64;1686696;81;25818;-74
2021/04/10 05:20:17;;;;;;;37.15;17.77;;;;;;;4.82;63.83;100564.90;1697201;81;26642;-74
2021/04/10 05:22:46;;;;;;;50.58;29.85;;;;;;;4.89;63.67;100570.80;1707741;81;26168;-74
2021/04/10 05:25:14;;;;;;;58.73;36.45;;;;;;;4.95;63.45;100571.52;1739580;81;28708;-74
2021/04/10 05:27:43;;;;;;;47.88;27.75;;;;;;;5.01;63.62;100562.94;1672381;81;26093;-74
2021/04/10 05:30:12;;;;;;;40.70;23.95;;;;;;;5.08;63.64;100567.14;1736077;81;26232;-74
2021/04/10 05:32:39;;;;;;;37.53;19.37;;;;;;;5.12;63.52;100564.04;1748788;81;26319;-74
2021/04/10 05:35:07;;;;;;;36.10;21.20;;;;;;;5.20;63.51;100572.06;1736882;82;26090;-74
2021/04/10 05:37:36;;;;;;;39.42;22.32;;;;;;;5.24;63.33;100578.73;1701156;80;27668;-75
2021/04/10 05:40:06;;;;;;;44.48;27.82;;;;;;;5.27;63.16;100585.08;1756023;80;26160;-74
2021/04/10 05:42:34;;;;;;;46.37;27.95;;;;;;;5.31;63.10;100582.95;1736711;80;25872;-75
2021/04/10 05:45:02;;;;;;;41.80;21.48;;;;;;;5.36;63.10;100584.17;1762794;80;25799;-74
2021/04/10 05:47:30;;;;;;;32.10;19.15;;;;;;;5.44;63.02;100588.70;1705696;80;26482;-74
2021/04/10 05:49:57;;;;;;;35.23;19.12;;;;;;;5.49;63.09;100585.09;1712108;80;28439;-74
2021/04/10 05:52:25;;;;;;;31.27;17.40;;;;;;;5.55;63.07;100587.13;1740512;80;26202;-74
2021/04/10 05:54:53;;;;;;;35.25;18.85;;;;;;;5.64;63.01;100581.38;1772539;80;26040;-74
2021/04/10 05:57:20;;;;;;;33.35;18.02;;;;;;;5.72;62.98;100590.73;1692093;81;25914;-74
2021/04/10 05:59:48;;;;;;;34.98;17.70;;;;;;;5.81;62.99;100581.34;1738047;80;26184;-74
2021/04/10 06:02:15;;;;;;;29.05;16.85;;;;;;;5.93;62.89;100589.90;1701013;81;27352;-74
2021/04/10 06:04:43;;;;;;;36.20;18.52;;;;;;;6.04;63.22;100594.95;1732464;81;26669;-74
2021/04/10 06:07:11;;;;;;;31.52;18.87;;;;;;;6.17;62.75;100606.00;1718972;80;26517;-74
2021/04/10 06:09:38;;;;;;;33.38;16.93;;;;;;;6.30;62.66;100605.07;1703992;80;25731;-74
2021/04/10 06:12:06;;;;;;;33.70;16.17;;;;;;;6.44;62.45;100610.27;1733573;80;25861;-74
2021/04/10 06:14:35;;;;;;;34.88;19.42;;;;;;;6.58;62.43;100606.52;1761788;80;27643;-74
2021/04/10 06:17:06;;;;;;;37.98;19.60;;;;;;;6.71;62.17;100604.25;1706059;80;26313;-74
2021/04/10 06:19:34;;;;;;;33.60;18.32;;;;;;;6.84;62.09;100598.45;1757417;80;25803;-75
2021/04/10 06:22:02;;;;;;;33.98;18.12;;;;;;;6.95;61.59;100610.94;1734665;80;25814;-74
2021/04/10 06:24:29;;;;;;;34.13;17.07;;;;;;;7.05;61.54;100597.49;1763385;80;26386;-74
2021/04/10 06:27:00;;;;;;;34.90;18.40;;;;;;;7.15;61.30;100602.16;1692595;83;27560;-76
2021/04/10 06:29:30;;;;;;;32.67;17.70;;;;;;;7.26;61.18;100603.67;1700855;81;25758;-75
2021/04/10 06:31:57;;;;;;;33.67;17.73;;;;;;;7.36;61.36;100610.50;1725712;81;25842;-75
2021/04/10 06:34:24;;;;;;;30.08;17.00;;;;;;;7.48;61.30;100615.02;1755707;81;26094;-74
2021/04/10 06:36:52;;;;;;;29.42;17.17;;;;;;;7.60;60.95;100617.18;1685233;81;25765;-75
2021/04/10 06:39:21;;;;;;;29.18;17.27;;;;;;;7.69;60.86;100612.19;1723546;81;27628;-75
2021/04/10 06:41:49;;;;;;;28.42;16.70;;;;;;;7.77;60.58;100612.17;1738947;81;25796;-74
2021/04/10 06:44:19;;;;;;;31.05;17.15;;;;;;;7.87;60.43;100609.83;1729205;81;25914;-75
2021/04/10 06:46:48;;;;;;;35.28;17.05;;;;;;;7.96;60.18;100605.63;1687213;81;25822;-74
2021/04/10 06:49:18;;;;;;;29.05;16.30;;;;;;;8.09;60.00;100605.09;1735043;81;26103;-75
2021/04/10 06:51:48;;;;;;;30.93;16.60;;;;;;;8.33;60.24;100599.73;1728521;81;27708;-75
2021/04/10 06:54:16;;;;;;;29.07;17.70;;;;;;;8.33;60.24;100599.73;1738467;81;26411;-75
2021/04/10 06:56:52;;;;;;;27.07;16.52;;;;;;;8.44;59.35;100607.38;1727741;81;25829;-75
2021/04/10 06:59:34;;;;;;;28.90;16.52;;;;;;;8.52;59.23;100604.66;1716449;81;25861;-75
2021/04/10 07:02:02;;;;;;;31.93;17.10;;;;;;;8.62;59.05;100610.62;1746998;81;25832;-75
2021/04/10 07:04:30;;;;;;;25.00;15.08;;;;;;;8.71;59.11;100606.91;1683052;82;28168;-75
2021/04/10 07:07:00;;;;;;;32.38;16.82;;;;;;;8.78;58.52;100603.04;1705431;81;25857;-75
2021/04/10 07:09:29;;;;;;;28.95;16.42;;;;;;;8.85;58.41;100607.52;1732752;81;25772;-75
2021/04/10 07:11:57;;;;;;;24.30;15.32;;;;;;;8.90;58.78;100595.78;1698306;82;26401;-74
2021/04/10 07:14:24;;;;;;;30.52;17.45;;;;;;;8.94;58.29;100607.78;1702324;81;26217;-75
2021/04/10 07:16:52;;;;;;;31.90;17.32;;;;;;;8.97;58.06;100610.61;1707918;81;27548;-75
2021/04/10 07:19:29;;;;;;;29.90;16.73;;;;;;;9.04;58.18;100619.59;1690527;81;25783;-74
2021/04/10 07:22:11;;;;;;;32.33;16.30;;;;;;;9.10;58.16;100613.04;1671029;83;25941;-74
2021/04/10 07:24:45;;;;;;;28.73;16.50;;;;;;;9.19;57.87;100618.67;1728120;81;25804;-75
2021/04/10 07:27:23;;;;;;;26.48;16.50;;;;;;;9.30;57.67;100620.91;1728709;81;25468;-75
2021/04/10 07:29:53;;;;;;;29.37;16.90;;;;;;;9.40;57.24;100610.48;1732658;81;27394;-74
2021/04/10 07:32:34;;;;;;;33.08;16.95;;;;;;;9.50;57.09;100615.08;1722912;81;26202;-74
2021/04/10 07:35:09;;;;;;;27.10;15.38;;;;;;;9.57;57.15;100607.51;1691748;81;25749;-75
2021/04/10 07:37:50;;;;;;;29.77;15.30;;;;;;;9.64;56.42;100608.46;1731966;81;26399;-75
2021/04/10 07:40:25;;;;;;;30.05;16.50;;;;;;;9.66;56.28;100614.45;1732263;81;25915;-75
2021/04/10 07:42:56;;;;;;;27.42;16.00;;;;;;;9.71;56.37;100606.70;1741566;81;27640;-75
2021/04/10 07:45:35;;;;;;;29.40;16.75;;;;;;;9.81;56.80;100603.29;1708107;81;25447;-75
2021/04/10 07:48:13;;;;;;;34.75;18.07;;;;;;;9.93;56.83;100603.66;1725863;81;25870;-75
2021/04/10 07:50:41;;;;;;;35.68;18.30;;;;;;;10.04;56.42;100615.27;1735464;81;25932;-75
2021/04/10 07:53:25;;;;;;;36.20;19.52;;;;;;;10.16;56.26;100618.36;1726060;80;25843;-75
2021/04/10 07:55:56;;;;;;;32.33;18.25;;;;;;;10.29;56.14;100622.05;1706684;81;28497;-75
2021/04/10 07:58:34;;;;;;;31.20;18.67;;;;;;;10.43;56.27;100618.55;1726176;81;25734;-74
2021/04/10 08:01:09;;;;;;;32.78;18.92;;;;;;;10.56;55.58;100615.22;1759711;81;25832;-74
2021/04/10 08:03:50;;;;;;;30.48;19.10;;;;;;;10.68;55.45;100624.43;1750795;81;25725;-75
2021/04/10 08:06:21;;;;;;;34.43;17.85;;;;;;;10.75;54.98;100622.67;1695817;81;25774;-75
2021/04/10 08:08:58;;;;;;;38.67;19.05;;;;;;;10.82;54.98;100615.53;1727522;81;27531;-75
2021/04/10 08:11:41;;;;;;;29.20;17.37;;;;;;;10.94;54.99;100612.70;1737775;81;26419;-75
2021/04/10 08:14:14;;;;;;;33.55;17.57;;;;;;;11.09;54.82;100620.70;1748239;81;25785;-76
2021/04/10 08:16:45;;;;;;;33.08;18.12;;;;;;;11.23;54.76;100626.51;1704124;81;26582;-75
2021/04/10 08:19:14;;;;;;;33.40;17.45;;;;;;;11.34;54.11;100612.10;1709511;81;25733;-76
2021/04/10 08:21:50;;;;;;;30.02;17.15;;;;;;;11.47;54.09;100601.50;1735543;81;27286;-75
2021/04/10 08:24:31;;;;;;;29.87;16.00;;;;;;;11.57;54.21;100604.69;1750721;81;26223;-76
2021/04/10 08:27:04;;;;;;;28.65;16.87;;;;;;;11.72;54.06;100599.80;1722061;81;26380;-76
2021/04/10 08:29:34;;;;;;;26.20;15.75;;;;;;;11.85;53.59;100596.69;1750882;81;25740;-76
2021/04/10 08:32:04;;;;;;;30.37;16.85;;;;;;;12.01;53.39;100603.63;1736881;81;26011;-75
2021/04/10 08:34:32;;;;;;;28.57;15.88;;;;;;;12.12;53.06;100606.61;1753251;81;27525;-76
2021/04/10 08:37:04;;;;;;;30.72;16.55;;;;;;;12.19;52.76;100604.77;1686549;81;26414;-75
2021/04/10 08:39:43;;;;;;;30.25;16.12;;;;;;;12.30;52.82;100602.05;1734326;81;25837;-75
2021/04/10 08:42:17;;;;;;;26.00;15.23;;;;;;;12.41;52.43;100610.91;1731325;81;26513;-75
2021/04/10 08:44:47;;;;;;;23.22;14.47;;;;;;;12.49;52.44;100609.39;1751825;81;25773;-74
2021/04/10 08:47:20;;;;;;;29.57;16.90;;;;;;;12.56;51.28;100606.73;1692537;81;27451;-75
2021/04/10 08:49:51;;;;;;;30.95;16.00;;;;;;;12.59;51.80;100610.38;1733846;81;25814;-74
2021/04/10 08:52:32;;;;;;;26.10;15.30;;;;;;;12.58;51.23;100610.89;1736846;81;26535;-75
2021/04/10 08:55:02;;;;;;;26.17;15.50;;;;;;;12.60;50.88;100610.68;1749613;81;25889;-75
2021/04/10 08:57:43;;;;;;;25.88;15.10;;;;;;;12.64;50.03;100614.12;1691414;81;26251;-74
2021/04/10 09:00:25;;;;;;;28.42;16.02;;;;;;;12.71;50.30;100613.64;1743381;81;27534;-74
2021/04/10 09:02:57;;;;;;;22.90;14.37;;;;;;;12.85;50.20;100622.06;1738485;81;25728;-75
2021/04/10 09:05:46;;;;;;;26.02;14.20;;;;;;;12.97;50.02;100625.02;1727960;81;25957;-75
2021/04/10 09:08:29;;;;;;;23.45;13.98;;;;;;;13.09;50.46;100620.73;1702028;82;26473;-75
2021/04/10 09:10:59;;;;;;;30.80;16.25;;;;;;;13.21;50.02;100625.02;1736823;81;25412;-75
2021/04/10 09:13:29;;;;;;;27.82;16.07;;;;;;;13.28;49.66;100622.64;1735038;81;27410;-75
2021/04/10 09:16:37;;;;;;;28.03;15.63;;;;;;;13.34;49.73;100624.55;1751452;81;26082;-75
2021/04/10 09:19:21;;;;;;;26.95;15.00;;;;;;;13.40;49.49;100629.61;1734481;81;25810;-75
2021/04/10 09:21:57;;;;;;;24.98;15.00;;;;;;;13.46;49.50;100628.28;1735095;81;26485;-74
2021/04/10 09:24:33;;;;;;;28.00;16.82;;;;;;;13.51;49.04;100629.02;1732936;81;25852;-75
2021/04/10 09:27:19;;;;;;;30.62;16.75;;;;;;;13.56;48.46;100632.73;1752271;81;27596;-74
2021/04/10 09:29:58;;;;;;;28.70;16.32;;;;;;;13.57;48.47;100634.41;1730524;81;26211;-74
2021/04/10 09:32:38;;;;;;;28.70;14.05;;;;;;;13.59;47.95;100628.30;1725533;81;25866;-74
2021/04/10 09:35:11;;;;;;;25.27;13.10;;;;;;;13.64;47.30;100624.45;1726563;81;26201;-74
2021/04/10 09:37:44;;;;;;;21.82;13.60;;;;;;;13.78;47.77;100629.34;1752795;81;25798;-75
2021/04/10 09:43:04;;;;;;;31.45;13.80;;;;;;;14.11;47.63;100624.80;1829400;77;25713;-75
2021/04/10 09:45:37;;;;;;;25.02;13.83;;;;;;;14.20;47.47;100616.78;1776987;78;25789;-75
2021/04/10 09:48:12;;;;;;;21.75;13.30;;;;;;;14.34;46.60;100620.32;1775459;78;27537;-75
2021/04/10 09:50:52;;;;;;;26.73;15.40;;;;;;;14.46;46.78;100630.75;1776766;78;25380;-75
2021/04/10 09:53:23;;;;;;;27.52;14.70;;;;;;;14.55;46.58;100626.80;1775973;78;26020;-75
2021/04/10 09:56:07;;;;;;;24.20;13.83;;;;;;;14.64;45.16;100625.53;1806646;78;26484;-75
2021/04/10 09:58:44;;;;;;;23.27;13.83;;;;;;;14.65;44.43;100625.82;1763391;78;25790;-75
2021/04/10 10:01:22;;;;;;;22.62;12.60;;;;;;;14.66;45.15;100631.02;1748082;80;27509;-75
2021/04/10 10:03:50;;;;;;;17.60;11.20;;;;;;;14.81;44.90;100625.88;1752446;78;26226;-75
2021/04/10 10:06:38;;;;;;;23.55;13.53;;;;;;;15.00;42.93;100623.10;1774740;78;25798;-75
2021/04/10 10:09:26;;;;;;;23.20;13.13;;;;;;;15.14;44.23;100622.53;1761691;78;26129;-75
2021/04/10 10:11:57;;;;;;;18.73;11.70;;;;;;;15.34;44.29;100634.02;1800529;78;26049;-75
2021/04/10 10:14:24;;;;;;;22.20;13.03;;;;;;;15.56;44.36;100628.62;1776006;78;26464;-75
2021/04/10 10:16:53;;;;;;;20.43;11.97;;;;;;;15.63;42.08;100624.53;1807445;78;25701;-75
2021/04/10 10:19:21;;;;;;;21.77;13.53;;;;;;;15.62;43.02;100625.05;1776282;78;26578;-75
2021/04/10 10:21:48;;;;;;;22.45;12.03;;;;;;;15.67;42.23;100613.59;1750123;78;26609;-74
2021/04/10 10:24:23;;;;;;;20.37;11.43;;;;;;;15.68;42.49;100609.31;1715317;78;25899;-75
2021/04/10 10:26:50;;;;;;;16.10;10.13;;;;;;;15.68;40.65;100624.16;1804106;78;27513;-75
2021/04/10 10:29:18;;;;;;;19.80;11.53;;;;;;;15.64;41.77;100616.72;1730839;78;25761;-75
2021/04/10 10:31:48;;;;;;;17.07;10.48;;;;;;;15.67;41.60;100614.94;1774698;80;25915;-74
2021/04/10 10:34:20;;;;;;;15.72;11.30;;;;;;;15.66;40.89;100617.32;1741301;78;25861;-75
2021/04/10 10:36:48;;;;;;;17.75;11.55;;;;;;;15.68;41.45;100620.11;1806091;78;25842;-76
2021/04/10 10:39:38;;;;;;;16.95;11.22;;;;;;;15.66;39.75;100623.56;1726080;78;27624;-76
2021/04/10 10:42:06;;;;;;;18.65;11.08;;;;;;;15.66;41.29;100622.20;1770386;79;26151;-75
2021/04/10 10:44:36;;;;;;;18.77;11.18;;;;;;;15.75;41.13;100629.00;1731001;81;25767;-75
2021/04/10 10:47:08;;;;;;;23.52;11.20;;;;;;;15.88;41.37;100621.31;1751381;81;25990;-75
2021/04/10 10:49:35;;;;;;;17.62;10.60;;;;;;;16.02;41.52;100622.84;1708025;81;25850;-76
2021/04/10 10:52:03;;;;;;;19.02;11.15;;;;;;;16.10;41.39;100618.53;1744199;81;27525;-75
2021/04/10 10:54:36;;;;;;;20.10;11.40;;;;;;;16.15;41.35;100615.97;1730093;81;26573;-75
2021/04/10 10:57:12;;;;;;;17.62;11.85;;;;;;;16.18;41.43;100619.07;1750633;81;25837;-75
2021/04/10 10:59:40;;;;;;;17.55;10.45;;;;;;;16.25;40.86;100621.71;1702440;81;25940;-75
2021/04/10 11:02:09;;;;;;;17.17;10.82;;;;;;;16.30;39.99;100620.50;1734471;81;26182;-75
2021/04/10 11:04:38;;;;;;;16.27;10.60;;;;;;;16.31;40.00;100623.52;1707417;81;28277;-76
2021/04/10 11:07:07;;;;;;;16.55;11.35;;;;;;;16.29;38.95;100619.38;1751249;81;26094;-75
2021/04/10 11:09:37;;;;;;;18.00;10.95;;;;;;;16.32;37.62;100616.21;1693339;81;25792;-75
2021/04/10 11:12:11;;;;;;;18.90;11.18;;;;;;;16.41;38.89;100618.93;1732045;81;26480;-74
2021/04/10 11:14:42;;;;;;;17.32;11.20;;;;;;;16.56;39.07;100617.55;1733031;81;25910;-74
2021/04/10 11:17:11;;;;;;;18.48;10.93;;;;;;;16.71;39.79;100627.47;1752869;80;28434;-74
2021/04/10 11:22:20;;;;;;;14.00;9.10;;;;;;;17.07;39.35;100611.72;1832849;77;25872;-75
2021/04/10 11:24:49;;;;;;;14.18;10.28;;;;;;;17.05;38.96;100619.23;1757291;78;25824;-75
2021/04/10 11:27:20;;;;;;;14.47;10.50;;;;;;;17.12;39.24;100617.28;1742050;79;27537;-75
2021/04/10 11:30:03;;;;;;;17.82;10.55;;;;;;;17.17;37.86;100616.59;1748645;80;26164;-75
2021/04/10 11:32:43;;;;;;;16.40;11.00;;;;;;;17.18;38.49;100610.95;1752368;79;25857;-75
2021/04/10 11:35:23;;;;;;;17.00;10.70;;;;;;;17.35;38.41;100614.66;1793902;78;25977;-75
2021/04/10 11:37:56;;;;;;;16.05;13.30;;;;;;;17.43;38.05;100606.72;1740173;79;25834;-75
2021/04/10 11:40:34;;;;;;;15.68;10.80;;;;;;;17.42;37.96;100601.03;1792573;78;28424;-76
2021/04/10 11:43:10;;;;;;;19.67;11.35;;;;;;;17.36;36.79;100601.44;1798096;78;25933;-75